Time;durP1;ratioP1;P1;durP2;ratioP2;P2;SDS_P1;SDS_P2;PMS_P1;PMS_P2;Temp;Humidity;BMP_temperature;BMP_pressure;BME280_temperature;BME280_humidity;BME280_pressure;Samples;Min_cycle;Max_cycle;Signal;HPM_P1;HPM_P2
2023/06/25 00:00:44;;;;;;;;;7.00;6.75;;;;;-143.57;100.00;65101.44;5100053;27;47128;-47
2023/06/25 00:03:11;;;;;;;;;10.75;7.25;;;;;-143.57;100.00;65101.44;5099839;27;45320;-46
2023/06/25 00:05:36;;;;;;;;;6.80;5.80;;;;;-143.57;100.00;65101.44;5100136;27;45393;-49
2023/06/25 00:08:01;;;;;;;;;6.50;6.50;;;;;-143.57;100.00;65101.44;5100388;27;45501;-49
2023/06/25 00:10:27;;;;;;;;;6.00;5.25;;;;;-143.57;100.00;65101.44;5099922;27;46171;-48
2023/06/25 00:12:52;;;;;;;;;7.50;6.25;;;;;-143.57;100.00;65101.44;5099751;27;45352;-46
2023/06/25 00:15:17;;;;;;;;;7.00;5.00;;;;;-143.57;100.00;65101.44;5100037;27;45382;-46
2023/06/25 00:17:47;;;;;;;;;8.25;5.00;;;;;-143.57;100.00;65101.44;5100208;27;45817;-49
2023/06/25 00:20:12;;;;;;;;;8.40;6.60;;;;;-143.57;100.00;65101.44;5099358;27;47154;-46
2023/06/25 00:22:38;;;;;;;;;5.00;5.00;;;;;-143.57;100.00;65101.44;5098651;27;45465;-47
2023/06/25 00:25:03;;;;;;;;;5.25;5.25;;;;;-143.57;100.00;65101.44;5099733;27;45294;-47
2023/06/25 00:27:29;;;;;;;;;8.75;7.00;;;;;-143.57;100.00;65101.44;5099527;27;45321;-46
2023/06/25 00:29:54;;;;;;;;;9.25;8.50;;;;;-143.57;100.00;65101.44;5099483;27;47358;-45
2023/06/25 00:32:21;;;;;;;;;6.00;5.40;;;;;-143.57;100.00;65101.44;5099385;27;45546;-47
2023/06/25 00:34:46;;;;;;;;;8.00;5.50;;;;;-143.57;100.00;65101.44;5099640;27;45353;-47
2023/06/25 00:37:17;;;;;;;;;8.75;7.00;;;;;-143.57;100.00;65101.44;5099510;27;45319;-47
2023/06/25 00:39:45;;;;;;;;;7.00;5.60;;;;;-143.57;100.00;65101.44;5099475;27;46143;-44
2023/06/25 00:42:10;;;;;;;;;14.80;8.20;;;;;-143.57;100.00;65101.44;5099085;27;45255;-45
2023/06/25 00:44:40;;;;;;;;;6.75;6.75;;;;;-143.57;100.00;65101.44;5099449;27;45256;-45
2023/06/25 00:47:12;;;;;;;;;6.60;5.00;;;;;-143.57;100.00;65101.44;5099874;27;45335;-45
2023/06/25 00:49:42;;;;;;;;;7.80;5.80;;;;;-143.57;100.00;65101.44;5099338;27;47263;-45
2023/06/25 00:52:10;;;;;;;;;9.00;4.00;;;;;-143.57;100.00;65101.44;5099490;27;45247;-46
2023/06/25 00:54:37;;;;;;;;;8.00;6.00;;;;;-143.57;100.00;65101.44;5098828;27;45214;-45
2023/06/25 00:57:04;;;;;;;;;10.00;7.00;;;;;-143.57;100.00;65101.44;5099238;27;45350;-46
2023/06/25 00:59:30;;;;;;;;;9.20;7.80;;;;;-143.57;100.00;65101.44;5099138;27;46030;-46
2023/06/25 01:02:01;;;;;;;;;5.50;5.50;;;;;-143.57;100.00;65101.44;5080604;27;45324;-46
2023/06/25 01:04:35;;;;;;;;;7.60;6.00;;;;;-143.57;100.00;65101.44;5099089;27;45362;-45
2023/06/25 01:07:04;;;;;;;;;7.00;5.00;;;;;-143.57;100.00;65101.44;5099215;27;45477;-45
2023/06/25 01:09:31;;;;;;;;;8.80;7.00;;;;;-143.57;100.00;65101.44;5098640;27;46082;-48
2023/06/25 01:12:04;;;;;;;;;6.80;6.00;;;;;-143.57;100.00;65101.44;5098548;27;45352;-47
2023/06/25 01:14:32;;;;;;;;;9.00;6.00;;;;;-143.57;100.00;65101.44;5098627;27;45263;-45
2023/06/25 01:16:58;;;;;;;;;6.00;4.60;;;;;-143.57;100.00;65101.44;5098713;27;45533;-48
2023/06/25 01:19:29;;;;;;;;;6.80;6.80;;;;;-143.57;100.00;65101.44;5098548;27;46092;-48
2023/06/25 01:21:59;;;;;;;;;6.20;5.80;;;;;-143.57;100.00;65101.44;5098522;27;45483;-47
2023/06/25 01:24:26;;;;;;;;;7.60;5.60;;;;;-143.57;100.00;65101.44;5098842;27;45384;-47
2023/06/25 01:26:59;;;;;;;;;6.60;5.60;;;;;-143.57;100.00;65101.44;5098631;27;45664;-48
2023/06/25 01:29:26;;;;;;;;;8.60;7.00;;;;;-143.57;100.00;65101.44;5098629;27;45421;-44
2023/06/25 01:31:52;;;;;;;;;7.20;6.40;;;;;-143.57;100.00;65101.44;5098472;27;45308;-46
2023/06/25 01:34:20;;;;;;;;;6.00;5.25;;;;;-143.57;100.00;65101.44;5098538;27;45414;-48
2023/06/25 01:36:48;;;;;;;;;7.75;6.00;;;;;-143.57;100.00;65101.44;5071750;27;45593;-45
2023/06/25 01:39:15;;;;;;;;;8.80;5.00;;;;;-143.57;100.00;65101.44;5098609;27;46304;-46
2023/06/25 01:41:42;;;;;;;;;6.40;4.60;;;;;-143.57;100.00;65101.44;5098329;27;45300;-45
2023/06/25 01:44:07;;;;;;;;;9.20;6.20;;;;;-143.57;100.00;65101.44;5098412;27;45384;-46
2023/06/25 01:46:32;;;;;;;;;7.50;5.00;;;;;-143.57;100.00;65101.44;5098307;27;45419;-44
2023/06/25 01:48:58;;;;;;;;;5.25;5.00;;;;;-143.57;100.00;65101.44;5098057;27;46171;-46
2023/06/25 01:51:23;;;;;;;;;5.25;5.25;;;;;-143.57;100.00;65101.44;5098433;27;45382;-45
2023/06/25 01:53:48;;;;;;;;;6.25;6.00;;;;;-143.57;100.00;65101.44;5098274;27;45478;-47
2023/06/25 01:56:14;;;;;;;;;7.00;6.75;;;;;-143.57;100.00;65101.44;5098351;27;45362;-49
2023/06/25 01:58:39;;;;;;;;;5.00;5.00;;;;;-143.57;100.00;65101.44;5097818;27;46186;-47
2023/06/25 02:01:04;;;;;;;;;6.25;5.25;;;;;-143.57;100.00;65101.44;5098016;27;45314;-46
2023/06/25 02:03:30;;;;;;;;;7.00;5.25;;;;;-143.57;100.00;65101.44;5098354;27;45493;-47
2023/06/25 02:05:55;;;;;;;;;7.25;7.25;;;;;-143.57;100.00;65101.44;5098234;27;45396;-45
2023/06/25 02:08:20;;;;;;;;;4.50;4.50;;;;;-143.57;100.00;65101.44;5098088;27;46310;-45
2023/06/25 02:10:46;;;;;;;;;9.00;6.00;;;;;-143.57;100.00;65101.44;5097748;27;49707;-48
2023/06/25 02:13:11;;;;;;;;;5.50;5.50;;;;;-143.57;100.00;65101.44;5097818;27;45489;-44
2023/06/25 02:15:36;;;;;;;;;6.50;6.50;;;;;-143.57;100.00;65101.44;5098277;27;45344;-45
2023/06/25 02:18:02;;;;;;;;;4.00;4.00;;;;;-143.57;100.00;65101.44;5097743;27;45363;-44
2023/06/25 02:20:27;;;;;;;;;4.00;4.00;;;;;-143.57;100.00;65101.44;5097912;27;45322;-47
2023/06/25 02:22:52;;;;;;;;;7.50;5.00;;;;;-143.57;100.00;65101.44;5097921;27;45146;-47
2023/06/25 02:25:18;;;;;;;;;4.75;4.75;;;;;-143.57;100.00;65101.44;5098072;27;45446;-46
2023/06/25 02:27:43;;;;;;;;;5.25;3.25;;;;;-143.57;100.00;65101.44;5097271;27;46148;-44
2023/06/25 02:30:09;;;;;;;;;6.50;5.00;;;;;-143.57;100.00;65101.44;5097558;27;45223;-44
2023/06/25 02:32:35;;;;;;;;;7.80;6.00;;;;;-143.57;100.00;65101.44;5097517;27;45302;-44
2023/06/25 02:35:00;;;;;;;;;6.50;5.00;;;;;-143.57;100.00;65101.44;5097804;27;45383;-46
2023/06/25 02:37:25;;;;;;;;;6.00;6.00;;;;;-143.57;100.00;65101.44;5097539;27;45412;-48
2023/06/25 02:39:50;;;;;;;;;7.00;6.50;;;;;-143.57;100.00;65101.44;5097530;27;45313;-46
2023/06/25 02:42:16;;;;;;;;;6.25;5.50;;;;;-143.57;100.00;65101.44;5097261;27;45460;-48
2023/06/25 02:44:41;;;;;;;;;5.00;4.50;;;;;-143.57;100.00;65101.44;5096890;27;45462;-47
2023/06/25 02:47:07;;;;;;;;;6.25;6.25;;;;;-143.57;100.00;65101.44;5078982;27;47378;-47
2023/06/25 02:49:32;;;;;;;;;6.25;6.25;;;;;-143.57;100.00;65101.44;5097350;27;45413;-48
2023/06/25 02:51:58;;;;;;;;;6.00;6.00;;;;;-143.57;100.00;65101.44;5097616;27;45371;-47
2023/06/25 02:54:23;;;;;;;;;9.75;6.25;;;;;-143.57;100.00;65101.44;5097418;27;45361;-46
2023/06/25 02:56:50;;;;;;;;;7.50;6.00;;;;;-143.57;100.00;65101.44;5097151;27;46252;-45
2023/06/25 02:59:16;;;;;;;;;5.20;5.20;;;;;-143.57;100.00;65101.44;5078629;27;45483;-46
2023/06/25 03:01:41;;;;;;;;;5.25;5.25;;;;;-143.57;100.00;65101.44;5097118;27;45428;-48
2023/06/25 03:04:06;;;;;;;;;5.00;5.00;;;;;-143.57;100.00;65101.44;5097601;27;45470;-49
2023/06/25 03:06:32;;;;;;;;;5.00;5.00;;;;;-143.57;100.00;65101.44;5096683;27;45459;-44
2023/06/25 03:08:57;;;;;;;;;6.25;6.00;;;;;-143.57;100.00;65101.44;5097439;27;45337;-43
2023/06/25 03:11:22;;;;;;;;;6.75;6.75;;;;;-143.57;100.00;65101.44;5097549;27;45146;-45
2023/06/25 03:13:48;;;;;;;;;7.00;6.75;;;;;-143.57;100.00;65101.44;5097393;27;45212;-47
2023/06/25 03:16:13;;;;;;;;;5.00;5.00;;;;;-143.57;100.00;65101.44;5096761;27;46287;-48
2023/06/25 03:18:39;;;;;;;;;6.00;5.75;;;;;-143.57;100.00;65101.44;5096960;27;45469;-48
2023/06/25 03:21:04;;;;;;;;;5.50;4.00;;;;;-143.57;100.00;65101.44;5097097;27;45269;-45
2023/06/25 03:23:29;;;;;;;;;5.50;5.50;;;;;-143.57;100.00;65101.44;5097322;27;45244;-48
2023/06/25 03:25:55;;;;;;;;;5.00;4.00;;;;;-143.57;100.00;65101.44;5096798;27;46400;-48
2023/06/25 03:28:20;;;;;;;;;5.25;4.75;;;;;-143.57;100.00;65101.44;5096497;27;45296;-48
2023/06/25 03:30:47;;;;;;;;;5.00;5.00;;;;;-143.57;100.00;65101.44;5096991;27;45398;-45
2023/06/25 03:33:12;;;;;;;;;6.50;5.50;;;;;-143.57;100.00;65101.44;5096923;27;45446;-46
2023/06/25 03:35:37;;;;;;;;;5.00;5.00;;;;;-143.57;100.00;65101.44;5096651;27;46403;-47
2023/06/25 03:38:03;;;;;;;;;9.75;8.25;;;;;-143.57;100.00;65101.44;5096485;27;45367;-47
2023/06/25 03:40:28;;;;;;;;;5.50;5.25;;;;;-143.57;100.00;65101.44;5096960;27;45827;-48
2023/06/25 03:42:53;;;;;;;;;5.00;5.00;;;;;-143.57;100.00;65101.44;5096665;27;45328;-48
2023/06/25 03:45:19;;;;;;;;;6.50;6.00;;;;;-143.57;100.00;65101.44;5096512;27;45390;-47
2023/06/25 03:47:44;;;;;;;;;7.00;5.75;;;;;-143.57;100.00;65101.44;5096344;27;50978;-45
2023/06/25 03:50:09;;;;;;;;;8.25;5.75;;;;;-143.57;100.00;65101.44;5096575;27;45438;-46
2023/06/25 03:52:35;;;;;;;;;7.00;6.00;;;;;-143.57;100.00;65101.44;5097069;27;45319;-47
2023/06/25 03:55:00;;;;;;;;;4.25;4.25;;;;;-143.57;100.00;65101.44;5096539;27;46482;-46
2023/06/25 03:57:25;;;;;;;;;13.75;13.00;;;;;-143.57;100.00;65101.44;5098147;27;45315;-46
2023/06/25 03:59:51;;;;;;;;;13.50;13.25;;;;;-143.57;100.00;65101.44;5100001;27;45441;-47
2023/06/25 04:02:16;;;;;;;;;5.75;5.25;;;;;-143.57;100.00;65101.44;5100170;27;45378;-46
2023/06/25 04:04:41;;;;;;;;;5.50;5.50;;;;;-143.57;100.00;65101.44;5099894;27;47083;-45
2023/06/25 04:07:06;;;;;;;;;8.50;6.00;;;;;-143.57;100.00;65101.44;5099941;27;45439;-46
2023/06/25 04:09:32;;;;;;;;;7.25;7.25;;;;;-143.57;100.00;65101.44;5100064;27;46353;-45
2023/06/25 04:11:58;;;;;;;;;10.00;5.00;;;;;-143.57;100.00;65101.44;5099402;27;45381;-46
2023/06/25 04:14:23;;;;;;;;;9.00;6.50;;;;;-143.57;100.00;65101.44;5081501;27;45837;-46
2023/06/25 04:16:48;;;;;;;;;6.25;6.25;;;;;-143.57;100.00;65101.44;5099719;27;45172;-45
2023/06/25 04:19:14;;;;;;;;;7.50;6.50;;;;;-143.57;100.00;65101.44;5099963;27;45440;-47
2023/06/25 04:21:39;;;;;;;;;5.25;5.25;;;;;-143.57;100.00;65101.44;5100099;27;45309;-46
2023/06/25 04:24:05;;;;;;;;;6.25;6.00;;;;;-143.57;100.00;65101.44;5099668;27;45923;-46
2023/06/25 04:26:30;;;;;;;;;7.75;7.00;;;;;-143.57;100.00;65101.44;5099716;27;45692;-47
2023/06/25 04:28:55;;;;;;;;;6.00;6.00;;;;;-143.57;100.00;65101.44;5081159;27;45605;-46
2023/06/25 04:31:23;;;;;;;;;6.75;6.75;;;;;-143.57;100.00;65101.44;5099824;27;45285;-45
2023/06/25 04:33:48;;;;;;;;;8.40;6.60;;;;;-143.57;100.00;65101.44;5099124;27;45497;-46
2023/06/25 04:36:14;;;;;;;;;10.75;6.50;;;;;-143.57;100.00;65101.44;5099335;27;45424;-45
2023/06/25 04:38:40;;;;;;;;;11.75;7.75;;;;;-143.57;100.00;65101.44;5099671;27;45329;-46
2023/06/25 04:41:05;;;;;;;;;7.50;7.25;;;;;-143.57;100.00;65101.44;5099722;27;45298;-45
2023/06/25 04:43:30;;;;;;;;;6.50;6.00;;;;;-143.57;100.00;65101.44;5099159;27;46127;-46
2023/06/25 04:45:56;;;;;;;;;5.25;5.25;;;;;-143.57;100.00;65101.44;5099198;27;45355;-48
2023/06/25 04:48:21;;;;;;;;;7.00;7.00;;;;;-143.57;100.00;65101.44;5099391;27;45214;-45
2023/06/25 04:50:46;;;;;;;;;7.00;6.75;;;;;-143.57;100.00;65101.44;5099526;27;45498;-47
2023/06/25 04:53:12;;;;;;;;;7.75;7.75;;;;;-143.57;100.00;65101.44;5099132;27;46074;-46
2023/06/25 04:55:37;;;;;;;;;9.00;6.00;;;;;-143.57;100.00;65101.44;5080400;27;50230;-46
2023/06/25 04:58:02;;;;;;;;;11.00;8.00;;;;;-143.57;100.00;65101.44;5099093;27;45402;-46
2023/06/25 05:00:28;;;;;;;;;8.75;8.25;;;;;-143.57;100.00;65101.44;5099103;27;45509;-46
2023/06/25 05:02:53;;;;;;;;;6.50;6.00;;;;;-143.57;100.00;65101.44;5099207;27;45583;-44
2023/06/25 05:05:18;;;;;;;;;8.00;6.50;;;;;-143.57;100.00;65101.44;5099210;27;45383;-44
2023/06/25 05:07:44;;;;;;;;;6.25;6.25;;;;;-143.57;100.00;65101.44;5098490;27;45789;-46
2023/06/25 05:10:09;;;;;;;;;7.50;7.50;;;;;-143.57;100.00;65101.44;5099459;27;45205;-47
2023/06/25 05:12:35;;;;;;;;;11.25;7.75;;;;;-143.57;100.00;65101.44;5098676;27;46054;-45
2023/06/25 05:15:00;;;;;;;;;7.50;7.50;;;;;-143.57;100.00;65101.44;5098812;27;45233;-46
2023/06/25 05:17:26;;;;;;;;;8.25;8.00;;;;;-143.57;100.00;65101.44;5098666;27;45298;-47
2023/06/25 05:19:51;;;;;;;;;6.75;6.75;;;;;-143.57;100.00;65101.44;5098908;27;45181;-45
2023/06/25 05:22:16;;;;;;;;;8.00;7.00;;;;;-143.57;100.00;65101.44;5098672;27;45287;-47
2023/06/25 05:24:42;;;;;;;;;10.50;8.50;;;;;-143.57;100.00;65101.44;5098766;27;45368;-45
2023/06/25 05:27:07;;;;;;;;;7.25;6.00;;;;;-143.57;100.00;65101.44;5098520;27;45224;-45
2023/06/25 05:29:32;;;;;;;;;8.25;7.00;;;;;-143.57;100.00;65101.44;5098800;27;45359;-45
2023/06/25 05:31:58;;;;;;;;;8.00;6.75;;;;;-143.57;100.00;65101.44;5098407;27;45472;-44
2023/06/25 05:34:24;;;;;;;;;8.60;7.40;;;;;-143.57;100.00;65101.44;5098478;27;45406;-48
2023/06/25 05:36:49;;;;;;;;;15.50;13.25;;;;;-143.57;100.00;65101.44;5080152;27;45766;-46
2023/06/25 05:39:15;;;;;;;;;9.50;9.00;;;;;-143.57;100.00;65101.44;5098990;27;45343;-44
2023/06/25 05:41:40;;;;;;;;;9.75;6.25;;;;;-143.57;100.00;65101.44;5098462;27;45382;-46
2023/06/25 05:44:06;;;;;;;;;5.50;4.25;;;;;-143.57;100.00;65101.44;5098767;27;45414;-48
2023/06/25 05:46:31;;;;;;;;;9.00;8.00;;;;;-143.57;100.00;65101.44;5098640;27;45342;-49
2023/06/25 05:48:56;;;;;;;;;7.00;7.00;;;;;-143.57;100.00;65101.44;5098795;27;45394;-49
2023/06/25 05:51:22;;;;;;;;;10.25;8.25;;;;;-143.57;100.00;65101.44;5098374;27;45363;-49
2023/06/25 05:53:50;;;;;;;;;7.00;7.00;;;;;-143.57;100.00;65101.44;5098095;27;45319;-43
2023/06/25 05:56:16;;;;;;;;;8.60;6.40;;;;;-143.57;100.00;65101.44;5097852;27;45246;-44
2023/06/25 05:58:41;;;;;;;;;10.25;8.75;;;;;-143.57;100.00;65101.44;5098543;27;45243;-47
2023/06/25 06:01:06;;;;;;;;;10.25;8.00;;;;;-143.57;100.00;65101.44;5097831;27;46097;-47
2023/06/25 06:03:32;;;;;;;;;9.50;8.00;;;;;-143.57;100.00;65101.44;5098078;27;45316;-45
2023/06/25 06:05:59;;;;;;;;;8.50;8.50;;;;;-143.57;100.00;65101.44;5098147;27;45314;-44
2023/06/25 06:08:24;;;;;;;;;7.25;6.00;;;;;-143.57;100.00;65101.44;5098373;27;45391;-45
2023/06/25 06:10:50;;;;;;;;;8.25;8.25;;;;;-143.57;100.00;65101.44;5079643;27;47292;-45
2023/06/25 06:13:15;;;;;;;;;9.00;9.00;;;;;-143.57;100.00;65101.44;5097950;27;45402;-47
2023/06/25 06:15:41;;;;;;;;;47.00;37.00;;;;;-143.57;100.00;65101.44;5097894;27;45409;-45
2023/06/25 06:18:06;;;;;;;;;14.00;12.25;;;;;-143.57;100.00;65101.44;5097935;27;45477;-48
2023/06/25 06:20:32;;;;;;;;;13.00;11.00;;;;;-143.57;100.00;65101.44;5096587;27;45428;-48
2023/06/25 06:22:58;;;;;;;;;10.75;9.75;;;;;-143.57;100.00;65101.44;5097724;27;45440;-48
2023/06/25 06:25:24;;;;;;;;;9.60;7.40;;;;;-143.57;100.00;65101.44;5097955;27;45318;-46
2023/06/25 06:27:49;;;;;;;;;9.75;9.75;;;;;-143.57;100.00;65101.44;5098158;27;45343;-48
2023/06/25 06:30:15;;;;;;;;;10.00;8.00;;;;;-143.57;100.00;65101.44;5097666;27;46242;-48
2023/06/25 06:32:40;;;;;;;;;8.50;7.50;;;;;-143.57;100.00;65101.44;5097838;27;45224;-49
2023/06/25 06:35:05;;;;;;;;;13.00;10.00;;;;;-143.57;100.00;65101.44;5098084;27;45344;-57
2023/06/25 06:37:31;;;;;;;;;9.75;8.00;;;;;-143.57;100.00;65101.44;5097878;27;45212;-44
2023/06/25 06:39:57;;;;;;;;;13.25;8.25;;;;;-143.57;100.00;65101.44;5097441;27;46284;-42
2023/06/25 06:42:22;;;;;;;;;9.40;7.60;;;;;-143.57;100.00;65101.44;5097546;27;45301;-42
2023/06/25 06:44:47;;;;;;;;;8.75;8.50;;;;;-143.57;100.00;65101.44;5097331;27;46378;-43
2023/06/25 06:47:13;;;;;;;;;11.00;8.00;;;;;-143.57;100.00;65101.44;5097767;27;45344;-42
2023/06/25 06:49:38;;;;;;;;;10.75;8.00;;;;;-143.57;100.00;65101.44;5095968;27;45606;-43
2023/06/25 06:52:04;;;;;;;;;13.00;9.75;;;;;-143.57;100.00;65101.44;5097453;27;45490;-43
2023/06/25 06:54:29;;;;;;;;;8.25;8.00;;;;;-143.57;100.00;65101.44;5097355;27;45636;-44
2023/06/25 06:56:55;;;;;;;;;9.25;9.25;;;;;-143.57;100.00;65101.44;5097580;27;45430;-42
2023/06/25 06:59:20;;;;;;;;;11.25;9.00;;;;;-143.57;100.00;65101.44;5097572;27;45418;-42
2023/06/25 07:01:45;;;;;;;;;9.50;8.00;;;;;-143.57;100.00;65101.44;5097092;27;45367;-43
2023/06/25 07:04:10;;;;;;;;;9.75;9.75;;;;;-143.57;100.00;65101.44;5097325;27;45350;-44
2023/06/25 07:06:36;;;;;;;;;10.75;7.75;;;;;-143.57;100.00;65101.44;5097503;27;45315;-43
2023/06/25 07:09:01;;;;;;;;;10.50;9.75;;;;;-143.57;100.00;65101.44;5097156;27;47502;-44
2023/06/25 07:11:27;;;;;;;;;10.25;9.50;;;;;-143.57;100.00;65101.44;5097252;27;45426;-43
2023/06/25 07:13:52;;;;;;;;;9.25;9.00;;;;;-143.57;100.00;65101.44;5078803;27;45300;-44
2023/06/25 07:16:18;;;;;;;;;7.50;6.00;;;;;-143.57;100.00;65101.44;5096101;27;45474;-44
2023/06/25 07:18:43;;;;;;;;;8.25;8.00;;;;;-143.57;100.00;65101.44;5095881;27;45843;-44
2023/06/25 07:21:09;;;;;;;;;8.50;6.75;;;;;-143.57;100.00;65101.44;5097147;27;45329;-44
2023/06/25 07:23:36;;;;;;;;;7.00;7.00;;;;;-143.57;100.00;65101.44;5097350;27;45246;-43
2023/06/25 07:26:02;;;;;;;;;10.00;10.00;;;;;-143.57;100.00;65101.44;5097498;27;45221;-43
2023/06/25 07:28:27;;;;;;;;;9.00;7.75;;;;;-143.57;100.00;65101.44;5096854;27;46108;-43
2023/06/25 07:30:52;;;;;;;;;7.25;7.25;;;;;-143.57;100.00;65101.44;5097664;27;45270;-43
2023/06/25 07:33:18;;;;;;;;;10.00;9.00;;;;;-143.57;100.00;65101.44;5100737;27;45471;-43
2023/06/25 07:35:43;;;;;;;;;10.25;10.25;;;;;-143.57;100.00;65101.44;5100902;27;45617;-45
2023/06/25 07:38:08;;;;;;;;;9.00;9.00;;;;;-143.57;100.00;65101.44;5100357;27;45315;-43
2023/06/25 07:40:34;;;;;;;;;10.50;8.25;;;;;-143.57;100.00;65101.44;5100390;27;45380;-42
2023/06/25 07:42:59;;;;;;;;;10.75;9.00;;;;;-143.57;100.00;65101.44;5100403;27;45458;-45
2023/06/25 07:45:24;;;;;;;;;9.25;8.00;;;;;-143.57;100.00;65101.44;5100321;27;45311;-43
2023/06/25 07:47:49;;;;;;;;;9.50;9.50;;;;;-143.57;100.00;65101.44;5099703;27;49869;-45
2023/06/25 07:50:15;;;;;;;;;8.75;8.75;;;;;-143.57;100.00;65101.44;5100120;27;45437;-44
2023/06/25 07:52:40;;;;;;;;;10.25;9.00;;;;;-143.57;100.00;65101.44;5100439;27;45302;-44
2023/06/25 07:55:06;;;;;;;;;10.75;10.75;;;;;-143.57;100.00;65101.44;5100271;27;45408;-43
2023/06/25 07:57:31;;;;;;;;;10.50;9.00;;;;;-143.57;100.00;65101.44;5099698;27;46825;-45
2023/06/25 07:59:57;;;;;;;;;14.25;9.25;;;;;-143.57;100.00;65101.44;5099020;27;45485;-43
2023/06/25 08:02:22;;;;;;;;;10.25;9.25;;;;;-143.57;100.00;65101.44;5100005;27;45266;-43
2023/06/25 08:04:49;;;;;;;;;10.75;9.50;;;;;-143.57;100.00;65101.44;5100406;27;45330;-44
2023/06/25 08:07:14;;;;;;;;;10.60;10.00;;;;;-143.57;100.00;65101.44;5099921;27;45239;-43
2023/06/25 08:09:40;;;;;;;;;10.25;9.00;;;;;-143.57;100.00;65101.44;5099968;27;45351;-44
2023/06/25 08:12:06;;;;;;;;;6.50;4.75;;;;;-143.57;100.00;65101.44;5099388;27;45406;-43
2023/06/25 08:14:31;;;;;;;;;12.50;9.75;;;;;-143.57;100.00;65101.44;5100260;27;45372;-44
2023/06/25 08:16:56;;;;;;;;;9.25;9.25;;;;;-143.57;100.00;65101.44;5099542;27;46941;-44
2023/06/25 08:19:22;;;;;;;;;13.00;10.50;;;;;-143.57;100.00;65101.44;5099812;27;45402;-44
2023/06/25 08:21:47;;;;;;;;;11.00;11.00;;;;;-143.57;100.00;65101.44;5099987;27;45166;-43
2023/06/25 08:24:12;;;;;;;;;11.00;9.50;;;;;-143.57;100.00;65101.44;5100155;27;45158;-44
2023/06/25 08:26:38;;;;;;;;;9.75;8.75;;;;;-143.57;100.00;65101.44;5099333;27;46958;-43
2023/06/25 08:29:04;;;;;;;;;11.00;10.00;;;;;-143.57;100.00;65101.44;5099593;27;47669;-44
2023/06/25 08:31:29;;;;;;;;;10.80;10.20;;;;;-143.57;100.00;65101.44;5098585;27;45451;-43
2023/06/25 08:33:55;;;;;;;;;12.50;11.00;;;;;-143.57;100.00;65101.44;5099877;27;45352;-44
2023/06/25 08:36:20;;;;;;;;;12.25;9.25;;;;;-143.57;100.00;65101.44;5099418;27;45416;-44
2023/06/25 08:38:45;;;;;;;;;8.00;8.00;;;;;-143.57;100.00;65101.44;5099505;27;45494;-44
2023/06/25 08:41:10;;;;;;;;;11.50;9.00;;;;;-143.57;100.00;65101.44;5099482;27;47341;-44
2023/06/25 08:43:36;;;;;;;;;7.00;7.00;;;;;-143.57;100.00;65101.44;5098064;27;45451;-41
2023/06/25 08:46:02;;;;;;;;;7.00;7.00;;;;;-143.57;100.00;65101.44;5099596;27;46001;-42
2023/06/25 08:48:31;;;;;;;;;8.20;8.20;;;;;-143.57;100.00;65101.44;5099289;27;45391;-44
2023/06/25 08:51:08;;;;;;;;;10.40;10.40;;;;;-143.57;100.00;65101.44;5099524;27;45343;-43
2023/06/25 08:53:34;;;;;;;;;9.00;9.00;;;;;-143.57;100.00;65101.44;5098780;27;45353;-43
2023/06/25 08:56:03;;;;;;;;;9.00;8.00;;;;;-143.57;100.00;65101.44;5080849;27;47146;-43
2023/06/25 08:58:29;;;;;;;;;10.40;10.00;;;;;-143.57;100.00;65101.44;5099317;27;45399;-43
2023/06/25 09:00:54;;;;;;;;;10.40;10.40;;;;;-143.57;100.00;65101.44;5081019;27;45307;-44
2023/06/25 09:03:20;;;;;;;;;12.75;10.25;;;;;-143.57;100.00;65101.44;5098122;27;45312;-42
2023/06/25 09:05:55;;;;;;;;;11.75;10.00;;;;;-143.57;100.00;65101.44;5097459;27;45241;-45
2023/06/25 09:08:22;;;;;;;;;9.00;9.00;;;;;-143.57;100.00;65101.44;5098991;27;45177;-43
2023/06/25 09:10:52;;;;;;;;;10.00;9.20;;;;;-143.57;100.00;65101.44;5099297;27;45225;-44
2023/06/25 09:13:26;;;;;;;;;11.20;10.20;;;;;-143.57;100.00;65101.44;5100485;27;45447;-45
2023/06/25 09:15:59;;;;;;;;;8.80;7.60;;;;;-143.57;100.00;65101.44;5100110;27;45363;-45
2023/06/25 09:18:24;;;;;;;;;10.40;9.00;;;;;-143.57;100.00;65101.44;5098729;27;45388;-44
2023/06/25 09:20:50;;;;;;;;;8.00;6.75;;;;;-143.57;100.00;65101.44;5099421;27;45319;-45
2023/06/25 09:23:23;;;;;;;;;9.75;9.00;;;;;-143.57;100.00;65101.44;5098226;27;45394;-43
2023/06/25 09:25:53;;;;;;;;;10.40;10.40;;;;;-143.57;100.00;65101.44;5098677;27;46308;-43
2023/06/25 09:28:19;;;;;;;;;8.40;8.40;;;;;-143.57;100.00;65101.44;5098369;27;45521;-42
2023/06/25 09:30:45;;;;;;;;;15.60;9.80;;;;;-143.57;100.00;65101.44;5098830;27;45405;-44
2023/06/25 09:33:12;;;;;;;;;7.80;7.40;;;;;-143.57;100.00;65101.44;5098853;27;45380;-44
2023/06/25 09:35:38;;;;;;;;;10.00;10.00;;;;;-143.57;100.00;65101.44;5098337;27;46197;-45
2023/06/25 09:38:03;;;;;;;;;10.75;10.75;;;;;-143.57;100.00;65101.44;5098538;27;45399;-43
2023/06/25 09:40:29;;;;;;;;;10.25;8.50;;;;;-143.57;100.00;65101.44;5098381;27;45411;-43
2023/06/25 09:42:57;;;;;;;;;9.00;7.25;;;;;-143.57;100.00;65101.44;5098832;27;45439;-45
2023/06/25 09:45:24;;;;;;;;;11.20;10.80;;;;;-143.57;100.00;65101.44;5096825;27;45531;-44
2023/06/25 09:47:50;;;;;;;;;8.80;8.80;;;;;-143.57;100.00;65101.44;5096482;27;45651;-43
2023/06/25 09:50:32;;;;;;;;;13.00;10.00;;;;;-143.57;100.00;65101.44;5098513;27;45403;-44
2023/06/25 09:52:59;;;;;;;;;12.20;9.00;;;;;-143.57;100.00;65101.44;5098482;27;45315;-43
2023/06/25 09:55:27;;;;;;;;;8.20;8.20;;;;;-143.57;100.00;65101.44;5097791;27;47952;-44
2023/06/25 09:57:54;;;;;;;;;10.40;10.40;;;;;-143.57;100.00;65101.44;5096122;27;45646;-43
2023/06/25 10:00:21;;;;;;;;;11.80;11.40;;;;;-143.57;100.00;65101.44;5098273;27;45440;-43
2023/06/25 10:02:47;;;;;;;;;9.40;9.20;;;;;-143.57;100.00;65101.44;5098274;27;45557;-42
2023/06/25 10:05:12;;;;;;;;;12.00;9.00;;;;;-143.57;100.00;65101.44;5098171;27;45391;-45
2023/06/25 10:07:39;;;;;;;;;9.00;9.00;;;;;-143.57;100.00;65101.44;5097897;27;45393;-41
2023/06/25 10:10:06;;;;;;;;;10.40;10.40;;;;;-143.57;100.00;65101.44;5098331;27;45478;-45
2023/06/25 10:12:33;;;;;;;;;10.60;10.60;;;;;-143.57;100.00;65101.44;5098361;27;45400;-42
2023/06/25 10:15:00;;;;;;;;;12.00;10.00;;;;;-143.57;100.00;65101.44;5097107;27;46304;-43
2023/06/25 10:17:25;;;;;;;;;9.00;8.00;;;;;-143.57;100.00;65101.44;5097646;27;45416;-43
2023/06/25 10:19:58;;;;;;;;;9.25;9.25;;;;;-143.57;100.00;65101.44;5097934;27;45451;-42
2023/06/25 10:22:25;;;;;;;;;11.40;10.40;;;;;-143.57;100.00;65101.44;5098054;27;45392;-42
2023/06/25 10:24:53;;;;;;;;;9.60;8.00;;;;;-143.57;100.00;65101.44;5097649;27;46361;-40
2023/06/25 10:27:24;;;;;;;;;8.40;6.40;;;;;-143.57;100.00;65101.44;5097499;27;45467;-42
2023/06/25 10:29:52;;;;;;;;;9.40;9.40;;;;;-143.57;100.00;65101.44;5097624;27;45258;-42
2023/06/25 10:32:19;;;;;;;;;10.60;10.60;;;;;-143.57;100.00;65101.44;5097953;27;45344;-43
2023/06/25 10:34:54;;;;;;;;;10.60;9.80;;;;;-143.57;100.00;65101.44;5097502;27;46214;-42
2023/06/25 10:37:20;;;;;;;;;9.20;8.00;;;;;-143.57;100.00;65101.44;5096368;27;45360;-44
2023/06/25 10:39:45;;;;;;;;;9.75;7.50;;;;;-143.57;100.00;65101.44;5097557;27;45376;-43
2023/06/25 10:42:12;;;;;;;;;10.00;8.50;;;;;-143.57;100.00;65101.44;5097881;27;45211;-44
2023/06/25 10:44:38;;;;;;;;;8.80;8.80;;;;;-143.57;100.00;65101.44;5096088;27;46132;-43
2023/06/25 10:47:04;;;;;;;;;10.60;9.20;;;;;-143.57;100.00;65101.44;5097439;27;45265;-42
2023/06/25 10:49:29;;;;;;;;;11.20;11.20;;;;;-143.57;100.00;65101.44;5097121;27;45326;-44
2023/06/25 10:52:07;;;;;;;;;13.00;12.00;;;;;-143.57;100.00;65101.44;5097767;27;45386;-44
2023/06/25 10:54:32;;;;;;;;;10.00;10.00;;;;;-143.57;100.00;65101.44;5097116;27;45797;-44
2023/06/25 10:57:12;;;;;;;;;12.50;11.00;;;;;-143.57;100.00;65101.44;5096936;27;45304;-44
2023/06/25 10:59:39;;;;;;;;;10.00;8.60;;;;;-143.57;100.00;65101.44;5097064;27;45387;-41
2023/06/25 11:02:21;;;;;;;;;12.20;12.00;;;;;-143.57;100.00;65101.44;5097454;27;45430;-41